createdAt,value
2018-06-10T00:00:21.755Z,72.30
2018-06-10T00:00:54.414Z,72.20
2018-06-10T00:01:27.082Z,72.30
2018-06-10T00:01:59.759Z,72.50
2018-06-10T00:02:32.423Z,72.40
2018-06-10T00:03:05.343Z,72.40
2018-06-10T00:03:38.238Z,72.50
2018-06-10T00:04:10.932Z,72.50
2018-06-10T00:04:43.623Z,72.60
2018-06-10T00:05:16.322Z,72.60
2018-06-10T00:05:48.999Z,72.60
2018-06-10T00:06:21.782Z,72.60
2018-06-10T00:06:54.490Z,72.80
2018-06-10T00:07:27.210Z,72.70
2018-06-10T00:07:59.891Z,72.70
2018-06-10T00:08:32.546Z,72.70
2018-06-10T00:09:06.616Z,72.60
2018-06-10T00:09:39.306Z,72.50
2018-06-10T00:10:12.004Z,72.50
2018-06-10T00:10:44.689Z,73.00
2018-06-10T00:11:17.371Z,72.50
2018-06-10T00:11:50.030Z,72.50
2018-06-10T00:12:22.682Z,72.40
2018-06-10T00:12:55.343Z,72.30
2018-06-10T00:13:28.003Z,72.10
2018-06-10T00:14:00.678Z,72.10
2018-06-10T00:14:33.370Z,72.10
2018-06-10T00:15:06.251Z,72.10
2018-06-10T00:15:38.946Z,72.10
2018-06-10T00:16:11.634Z,72.00
2018-06-10T00:16:44.331Z,72.00
2018-06-10T00:17:16.990Z,71.90
2018-06-10T00:17:49.666Z,71.80
2018-06-10T00:18:22.363Z,71.80
2018-06-10T00:18:55.014Z,71.90
2018-06-10T00:19:27.658Z,71.90
2018-06-10T00:20:00.304Z,71.90
2018-06-10T00:20:32.970Z,71.90
2018-06-10T00:21:05.858Z,71.70
2018-06-10T00:21:38.546Z,71.70
2018-06-10T00:22:11.219Z,71.60
2018-06-10T00:22:43.899Z,71.70
2018-06-10T00:23:16.619Z,71.80
2018-06-10T00:23:49.279Z,71.90
2018-06-10T00:24:21.922Z,72.00
2018-06-10T00:24:54.586Z,72.00
2018-06-10T00:25:27.279Z,72.00
2018-06-10T00:25:59.926Z,71.80
2018-06-10T00:26:32.618Z,71.90
2018-06-10T00:27:05.307Z,71.80
2018-06-10T00:27:37.984Z,71.80
2018-06-10T00:28:11.185Z,71.70
2018-06-10T00:28:49.486Z,71.40
2018-06-10T00:29:22.503Z,71.70
2018-06-10T00:29:55.178Z,71.60
2018-06-10T00:30:27.866Z,71.40
2018-06-10T00:31:00.519Z,71.30
2018-06-10T00:31:33.222Z,71.30
2018-06-10T00:32:06.004Z,71.20
2018-06-10T00:32:38.686Z,71.10
2018-06-10T00:33:11.350Z,70.90
2018-06-10T00:33:43.999Z,71.00
2018-06-10T00:34:17.235Z,70.80
2018-06-10T00:34:49.879Z,71.00
2018-06-10T00:35:22.530Z,70.90
2018-06-10T00:35:55.203Z,71.60
2018-06-10T00:36:27.859Z,70.80
2018-06-10T00:37:00.551Z,71.10
2018-06-10T00:37:33.254Z,71.00
2018-06-10T00:38:05.914Z,71.50
2018-06-10T00:38:38.595Z,71.00
2018-06-10T00:39:11.271Z,71.10
2018-06-10T00:39:43.939Z,71.00
2018-06-10T00:40:16.654Z,70.70
2018-06-10T00:40:49.319Z,70.60
2018-06-10T00:41:21.991Z,70.60
2018-06-10T00:41:54.644Z,70.70
2018-06-10T00:42:27.299Z,70.80
2018-06-10T00:42:59.999Z,71.10
2018-06-10T00:43:32.663Z,71.10
2018-06-10T00:44:05.416Z,71.00
2018-06-10T00:44:38.102Z,71.00
2018-06-10T00:45:10.770Z,71.10
2018-06-10T00:45:43.503Z,71.20
2018-06-10T00:46:16.186Z,71.10
2018-06-10T00:46:48.834Z,71.10
2018-06-10T00:47:21.513Z,71.00
2018-06-10T00:47:54.199Z,71.10
2018-06-10T00:48:26.918Z,71.20
2018-06-10T00:48:59.627Z,71.30
2018-06-10T00:49:32.326Z,72.00
2018-06-10T00:50:05.022Z,71.40
2018-06-10T00:50:37.694Z,71.30
2018-06-10T00:51:10.364Z,71.20
2018-06-10T00:51:43.046Z,71.10
2018-06-10T00:52:15.730Z,71.10
2018-06-10T00:52:48.398Z,71.10
2018-06-10T00:53:21.066Z,71.10
2018-06-10T00:53:53.760Z,71.10
2018-06-10T00:54:26.438Z,71.20
2018-06-10T00:54:59.102Z,71.30
2018-06-10T00:55:31.775Z,71.60
2018-06-10T00:56:14.635Z,71.80
2018-06-10T00:56:52.343Z,71.90
2018-06-10T00:57:24.998Z,72.20
2018-06-10T00:57:57.666Z,72.20
2018-06-10T00:58:30.338Z,72.20
2018-06-10T00:59:03.031Z,72.20
2018-06-10T00:59:35.722Z,72.20
2018-06-10T01:00:08.410Z,72.20
2018-06-10T01:00:41.107Z,72.30
2018-06-10T01:01:13.775Z,72.40
2018-06-10T01:01:46.438Z,72.50
2018-06-10T01:02:19.115Z,72.50
2018-06-10T01:02:52.281Z,72.60
2018-06-10T01:03:24.950Z,72.70
2018-06-10T01:03:57.595Z,72.60
2018-06-10T01:04:30.291Z,73.00
2018-06-10T01:05:03.038Z,73.40
2018-06-10T01:05:35.751Z,73.50
2018-06-10T01:06:08.434Z,73.50
2018-06-10T01:06:41.164Z,73.50
2018-06-10T01:07:13.854Z,73.40
2018-06-10T01:07:46.527Z,73.40
2018-06-10T01:08:19.210Z,73.30
2018-06-10T01:08:51.879Z,73.30
2018-06-10T01:09:24.540Z,73.50
2018-06-10T01:09:57.274Z,73.60
2018-06-10T01:10:29.946Z,73.60
2018-06-10T01:11:02.646Z,73.60
2018-06-10T01:11:35.781Z,73.60
2018-06-10T01:12:08.482Z,73.70
2018-06-10T01:12:41.167Z,73.60
2018-06-10T01:13:13.827Z,73.50
2018-06-10T01:13:46.490Z,73.50
2018-06-10T01:14:19.178Z,74.40
2018-06-10T01:14:51.837Z,74.30
2018-06-10T01:15:24.527Z,74.60
2018-06-10T01:15:57.218Z,74.70
2018-06-10T01:16:29.915Z,75.00
2018-06-10T01:17:02.614Z,75.00
2018-06-10T01:17:35.290Z,75.20
2018-06-10T01:18:07.975Z,75.30
2018-06-10T01:18:40.718Z,76.00
2018-06-10T01:19:13.366Z,75.50
2018-06-10T01:19:46.071Z,75.60
2018-06-10T01:20:18.746Z,75.70
2018-06-10T01:20:51.459Z,75.80
2018-06-10T01:21:24.146Z,75.90
2018-06-10T01:21:56.809Z,75.80
2018-06-10T01:22:29.487Z,76.00
2018-06-10T01:23:02.146Z,76.00
2018-06-10T01:23:34.830Z,75.90
2018-06-10T01:24:07.559Z,76.10
2018-06-10T01:24:40.239Z,76.60
2018-06-10T01:25:13.027Z,76.10
2018-06-10T01:25:45.687Z,76.20
2018-06-10T01:26:24.138Z,76.40
2018-06-10T01:26:56.794Z,76.60
2018-06-10T01:27:29.462Z,76.10
2018-06-10T01:28:02.194Z,76.00
2018-06-10T01:28:34.850Z,75.80
2018-06-10T01:29:07.563Z,75.70
2018-06-10T01:30:12.846Z,75.60
2018-06-10T01:30:45.522Z,75.70
2018-06-10T01:31:18.194Z,75.60
2018-06-10T01:31:50.914Z,75.50
2018-06-10T01:32:23.599Z,75.40
2018-06-10T01:32:56.255Z,75.50
2018-06-10T01:33:28.943Z,75.00
2018-06-10T01:34:01.607Z,75.50
2018-06-10T01:34:34.263Z,75.40
2018-06-10T01:35:07.299Z,75.40
2018-06-10T01:35:39.979Z,75.40
2018-06-10T01:36:12.634Z,75.30
2018-06-10T01:36:45.310Z,75.30
2018-06-10T01:37:18.019Z,75.30
2018-06-10T01:37:50.690Z,75.20
2018-06-10T01:38:23.421Z,75.30
2018-06-10T01:38:56.970Z,75.10
2018-06-10T01:39:29.638Z,75.50
2018-06-10T01:40:02.307Z,75.10
2018-06-10T01:40:34.982Z,75.20
2018-06-10T01:41:07.694Z,75.00
2018-06-10T01:41:40.371Z,75.10
2018-06-10T01:42:13.035Z,75.00
2018-06-10T01:42:45.739Z,75.00
2018-06-10T01:43:18.399Z,74.90
2018-06-10T01:43:51.070Z,74.80
2018-06-10T01:44:23.734Z,74.90
2018-06-10T01:44:56.402Z,74.90
2018-06-10T01:45:29.086Z,74.90
2018-06-10T01:46:01.814Z,74.90
2018-06-10T01:46:34.498Z,75.00
2018-06-10T01:47:07.329Z,75.00
2018-06-10T01:47:39.978Z,74.90
2018-06-10T01:48:12.694Z,74.80
2018-06-10T01:48:45.358Z,74.70
2018-06-10T01:49:18.038Z,74.80
2018-06-10T01:49:50.734Z,74.80
2018-06-10T01:50:23.382Z,74.90
2018-06-10T01:51:28.635Z,75.00
2018-06-10T01:52:01.266Z,75.00
2018-06-10T01:52:33.922Z,75.10
2018-06-10T01:53:06.603Z,75.00
2018-06-10T01:53:39.306Z,75.20
2018-06-10T01:54:11.995Z,75.20
2018-06-10T01:54:44.650Z,75.30
2018-06-10T01:55:17.298Z,75.30
2018-06-10T01:55:50.055Z,75.40
2018-06-10T01:56:22.726Z,75.50
2018-06-10T01:56:55.415Z,75.50
2018-06-10T01:57:28.075Z,75.60
2018-06-10T01:58:00.718Z,75.60
2018-06-10T01:58:33.371Z,75.60
2018-06-10T01:59:06.102Z,75.50
2018-06-10T01:59:38.792Z,75.40
2018-06-10T02:00:11.511Z,75.40
2018-06-10T02:00:44.199Z,75.50
2018-06-10T02:01:16.899Z,75.50
2018-06-10T02:01:49.553Z,75.40
2018-06-10T02:02:22.442Z,75.30
2018-06-10T02:02:55.095Z,75.50
2018-06-10T02:03:27.759Z,75.50
2018-06-10T02:04:00.582Z,75.60
2018-06-10T02:04:33.286Z,75.60
2018-06-10T02:05:06.396Z,75.60
2018-06-10T02:05:39.075Z,75.60
2018-06-10T02:06:11.778Z,75.60
2018-06-10T02:06:44.466Z,75.50
2018-06-10T02:07:17.142Z,75.40
2018-06-10T02:07:49.822Z,75.40
2018-06-10T02:08:22.505Z,75.40
2018-06-10T02:08:55.183Z,75.40
2018-06-10T02:09:27.862Z,75.30
2018-06-10T02:10:00.549Z,75.40
2018-06-10T02:10:33.202Z,75.50
2018-06-10T02:11:05.907Z,75.60
2018-06-10T02:11:38.558Z,75.60
2018-06-10T02:12:11.251Z,75.40
2018-06-10T02:12:43.904Z,75.40
2018-06-10T02:13:16.558Z,75.40
2018-06-10T02:13:49.228Z,75.40
2018-06-10T02:14:21.882Z,75.40
2018-06-10T02:14:54.530Z,75.40
2018-06-10T02:15:27.234Z,75.30
2018-06-10T02:15:59.902Z,75.30
2018-06-10T02:16:32.582Z,75.50
2018-06-10T02:17:05.230Z,75.50
2018-06-10T02:17:37.911Z,75.40
2018-06-10T02:18:10.606Z,75.50
2018-06-10T02:18:43.271Z,75.50
2018-06-10T02:19:15.950Z,75.50
2018-06-10T02:19:48.711Z,75.50
2018-06-10T02:20:21.365Z,75.50
2018-06-10T02:20:54.067Z,75.40
2018-06-10T02:21:26.726Z,75.40
2018-06-10T02:21:59.382Z,75.50
2018-06-10T02:22:32.054Z,75.60
2018-06-10T02:23:04.757Z,75.70
2018-06-10T02:23:37.448Z,75.60
2018-06-10T02:24:10.120Z,75.70
2018-06-10T02:24:42.773Z,75.70
2018-06-10T02:25:15.562Z,75.80
2018-06-10T02:25:48.218Z,75.90
2018-06-10T02:26:20.890Z,75.90
2018-06-10T02:26:53.542Z,75.90
2018-06-10T02:27:26.210Z,75.80
2018-06-10T02:27:58.866Z,75.90
2018-06-10T02:28:31.514Z,75.80
2018-06-10T02:29:04.263Z,75.70
2018-06-10T02:29:36.918Z,75.70
2018-06-10T02:30:09.582Z,75.70
2018-06-10T02:30:42.243Z,75.70
2018-06-10T02:31:14.899Z,75.70
2018-06-10T02:31:47.567Z,75.70
2018-06-10T02:32:20.227Z,75.80
2018-06-10T02:32:52.906Z,75.80
2018-06-10T02:33:25.570Z,75.70
2018-06-10T02:33:58.223Z,75.90
2018-06-10T02:34:30.878Z,75.70
2018-06-10T02:35:03.546Z,75.80
2018-06-10T02:35:36.239Z,75.90
2018-06-10T02:36:08.902Z,75.90
2018-06-10T02:36:41.571Z,75.90
2018-06-10T02:37:14.270Z,76.00
2018-06-10T02:37:46.918Z,76.20
2018-06-10T02:38:19.578Z,76.20
2018-06-10T02:38:52.210Z,76.20
2018-06-10T02:39:24.871Z,76.20
2018-06-10T02:39:57.557Z,76.10
2018-06-10T02:40:30.222Z,76.20
2018-06-10T02:41:02.911Z,76.10
2018-06-10T02:41:35.571Z,76.20
2018-06-10T02:42:08.286Z,76.40
2018-06-10T02:43:13.570Z,76.30
2018-06-10T02:43:46.245Z,76.40
2018-06-10T02:44:18.905Z,76.30
2018-06-10T02:44:51.554Z,76.10
2018-06-10T02:45:24.226Z,75.90
2018-06-10T02:45:56.887Z,75.80
2018-06-10T02:46:29.567Z,75.50
2018-06-10T02:47:02.234Z,75.30
2018-06-10T02:47:34.962Z,75.20
2018-06-10T02:48:07.655Z,75.30
2018-06-10T02:48:40.339Z,75.60
2018-06-10T02:49:13.006Z,75.50
2018-06-10T02:49:45.670Z,75.50
2018-06-10T02:50:18.363Z,75.50
2018-06-10T02:50:51.031Z,75.50
2018-06-10T02:51:23.714Z,75.50
2018-06-10T02:51:56.392Z,75.50
2018-06-10T02:52:29.186Z,75.50
2018-06-10T02:53:01.851Z,75.30
2018-06-10T02:53:34.886Z,75.30
2018-06-10T02:54:40.152Z,75.40
2018-06-10T02:55:12.843Z,75.30
2018-06-10T02:55:45.502Z,75.10
2018-06-10T02:56:18.174Z,75.10
2018-06-10T02:56:50.876Z,75.10
2018-06-10T02:57:30.322Z,74.90
2018-06-10T02:58:03.010Z,75.00
2018-06-10T02:58:35.719Z,74.90
2018-06-10T02:59:08.415Z,74.90
2018-06-10T02:59:41.083Z,74.90
2018-06-10T03:00:13.762Z,75.10
2018-06-10T03:00:46.443Z,75.00
2018-06-10T03:01:19.114Z,75.00
2018-06-10T03:01:51.794Z,74.70
2018-06-10T03:02:24.466Z,74.70
2018-06-10T03:02:57.147Z,74.80
2018-06-10T03:03:29.822Z,74.90
2018-06-10T03:04:35.134Z,74.90
2018-06-10T03:05:07.846Z,75.10
2018-06-10T03:05:40.515Z,75.10
2018-06-10T03:06:13.177Z,75.20
2018-06-10T03:06:45.835Z,75.10
2018-06-10T03:07:18.482Z,75.60
2018-06-10T03:07:51.192Z,75.20
2018-06-10T03:08:23.802Z,75.20
2018-06-10T03:08:56.455Z,75.10
2018-06-10T03:09:29.134Z,75.10
2018-06-10T03:10:01.846Z,75.00
2018-06-10T03:10:34.603Z,74.90
2018-06-10T03:11:07.322Z,74.80
2018-06-10T03:11:40.023Z,74.80
2018-06-10T03:12:12.686Z,74.80
2018-06-10T03:12:45.353Z,75.00
2018-06-10T03:13:18.011Z,75.10
2018-06-10T03:13:50.662Z,75.20
2018-06-10T03:14:23.311Z,75.30
2018-06-10T03:14:56.053Z,75.20
2018-06-10T03:15:28.730Z,75.10
2018-06-10T03:16:01.410Z,75.10
2018-06-10T03:16:34.073Z,75.20
2018-06-10T03:17:06.743Z,75.20
2018-06-10T03:17:39.427Z,75.20
2018-06-10T03:18:12.091Z,75.10
2018-06-10T03:18:44.750Z,75.10
2018-06-10T03:19:17.443Z,75.00
2018-06-10T03:19:50.122Z,75.00
2018-06-10T03:20:22.853Z,75.10
2018-06-10T03:20:55.510Z,75.00
2018-06-10T03:21:28.167Z,74.90
2018-06-10T03:22:00.826Z,75.00
2018-06-10T03:22:33.514Z,74.90
2018-06-10T03:23:06.190Z,75.00
2018-06-10T03:23:38.892Z,75.10
2018-06-10T03:24:11.554Z,75.70
2018-06-10T03:24:44.215Z,75.20
2018-06-10T03:25:16.881Z,75.30
2018-06-10T03:25:49.554Z,75.30
2018-06-10T03:26:22.226Z,75.30
2018-06-10T03:26:54.890Z,75.30
2018-06-10T03:27:27.566Z,75.30
2018-06-10T03:28:00.250Z,75.50
2018-06-10T03:28:32.921Z,75.70
2018-06-10T03:29:05.643Z,75.60
2018-06-10T03:29:38.354Z,75.50
2018-06-10T03:30:11.006Z,75.40
2018-06-10T03:30:43.694Z,75.60
2018-06-10T03:31:16.375Z,75.70
2018-06-10T03:31:49.046Z,75.70
2018-06-10T03:32:21.698Z,75.80
2018-06-10T03:32:54.363Z,75.80
2018-06-10T03:33:27.033Z,76.40
2018-06-10T03:33:59.694Z,75.80
2018-06-10T03:34:32.338Z,75.90
2018-06-10T03:35:05.048Z,75.90
2018-06-10T03:35:37.714Z,75.70
2018-06-10T03:36:10.399Z,75.60
2018-06-10T03:36:43.087Z,75.70
2018-06-10T03:37:15.742Z,75.70
2018-06-10T03:37:48.406Z,75.60
2018-06-10T03:38:21.067Z,75.50
2018-06-10T03:38:53.714Z,75.60
2018-06-10T03:39:26.375Z,75.70
2018-06-10T03:39:59.040Z,75.70
2018-06-10T03:40:31.698Z,75.70
2018-06-10T03:41:04.370Z,75.70
2018-06-10T03:41:37.043Z,75.90
2018-06-10T03:42:09.763Z,75.90
2018-06-10T03:42:42.434Z,76.00
2018-06-10T03:43:15.079Z,76.10
2018-06-10T03:43:47.734Z,76.20
2018-06-10T03:44:20.397Z,76.10
2018-06-10T03:44:53.053Z,76.20
2018-06-10T03:45:25.698Z,76.30
2018-06-10T03:45:58.354Z,76.30
2018-06-10T03:46:31.057Z,76.40
2018-06-10T03:47:03.708Z,76.60
2018-06-10T03:47:36.418Z,76.50
2018-06-10T03:48:09.126Z,76.60
2018-06-10T03:48:41.799Z,76.80
2018-06-10T03:49:14.454Z,76.90
2018-06-10T03:49:47.115Z,76.80
2018-06-10T03:50:19.758Z,76.90
2018-06-10T03:50:52.418Z,77.00
2018-06-10T03:51:25.082Z,77.10
2018-06-10T03:51:57.774Z,77.30
2018-06-10T03:52:30.466Z,77.40
2018-06-10T03:53:03.187Z,77.40
2018-06-10T03:53:35.875Z,77.30
2018-06-10T03:54:08.544Z,77.30
2018-06-10T03:54:41.278Z,77.50
2018-06-10T03:55:13.926Z,77.40
2018-06-10T03:55:46.623Z,77.40
2018-06-10T03:56:19.402Z,77.90
2018-06-10T03:56:52.099Z,77.30
2018-06-10T03:57:24.767Z,77.40
2018-06-10T03:57:57.434Z,77.20
2018-06-10T03:58:30.134Z,77.10
2018-06-10T03:59:02.804Z,76.80
2018-06-10T03:59:35.482Z,76.60
2018-06-10T04:00:08.191Z,76.50
2018-06-10T04:00:40.893Z,76.30
2018-06-10T04:01:13.638Z,76.40
2018-06-10T04:01:46.295Z,76.50
2018-06-10T04:02:18.953Z,76.50
2018-06-10T04:02:51.618Z,76.60
2018-06-10T04:03:24.273Z,76.50
2018-06-10T04:03:56.962Z,76.50
2018-06-10T04:04:29.625Z,76.50
2018-06-10T04:05:02.351Z,76.40
2018-06-10T04:05:35.406Z,76.40
2018-06-10T04:06:08.111Z,76.50
2018-06-10T04:06:40.771Z,76.50
2018-06-10T04:07:13.446Z,76.60
2018-06-10T04:07:46.111Z,76.70
2018-06-10T04:08:18.769Z,76.70
2018-06-10T04:08:51.418Z,76.70
2018-06-10T04:09:24.113Z,76.60
2018-06-10T04:09:56.774Z,76.60
2018-06-10T04:10:29.451Z,76.60
2018-06-10T04:11:02.107Z,76.50
2018-06-10T04:11:35.083Z,76.60
2018-06-10T04:12:07.791Z,76.40
2018-06-10T04:12:40.474Z,76.30
2018-06-10T04:13:13.133Z,76.10
2018-06-10T04:13:45.790Z,76.00
2018-06-10T04:14:18.450Z,76.00
2018-06-10T04:14:51.131Z,76.30
2018-06-10T04:15:23.799Z,76.40
2018-06-10T04:16:29.254Z,76.00
2018-06-10T04:17:01.898Z,76.10
2018-06-10T04:17:34.542Z,76.10
2018-06-10T04:18:07.254Z,76.00
2018-06-10T04:18:39.922Z,76.00
2018-06-10T04:19:12.598Z,76.10
2018-06-10T04:19:45.262Z,76.10
2018-06-10T04:20:17.962Z,76.20
2018-06-10T04:20:50.614Z,76.30
2018-06-10T04:21:23.275Z,76.20
2018-06-10T04:21:55.947Z,76.30
2018-06-10T04:22:28.602Z,76.30
2018-06-10T04:23:01.283Z,76.20
2018-06-10T04:23:33.955Z,76.10
2018-06-10T04:24:06.755Z,76.10
2018-06-10T04:24:39.430Z,75.90
2018-06-10T04:25:12.106Z,75.80
2018-06-10T04:25:44.799Z,75.60
2018-06-10T04:26:17.455Z,75.50
2018-06-10T04:26:50.119Z,75.40
2018-06-10T04:27:22.779Z,75.60
2018-06-10T04:27:55.452Z,75.80
2018-06-10T04:28:28.118Z,75.80
2018-06-10T04:29:00.784Z,75.60
2018-06-10T04:29:33.445Z,75.50
2018-06-10T04:30:06.118Z,75.50
2018-06-10T04:30:38.810Z,75.50
2018-06-10T04:31:11.510Z,75.50
2018-06-10T04:31:44.170Z,75.40
2018-06-10T04:32:16.822Z,75.10
2018-06-10T04:32:49.490Z,75.00
2018-06-10T04:33:22.158Z,74.90
2018-06-10T04:33:54.831Z,74.90
2018-06-10T04:34:27.510Z,75.10
2018-06-10T04:35:00.171Z,74.90
2018-06-10T04:35:32.826Z,74.90
2018-06-10T04:36:05.505Z,75.00
2018-06-10T04:36:38.219Z,74.90
2018-06-10T04:37:10.878Z,74.60
2018-06-10T04:37:43.523Z,74.60
2018-06-10T04:38:16.206Z,74.40
2018-06-10T04:38:48.974Z,74.40
2018-06-10T04:39:21.618Z,74.40
2018-06-10T04:39:54.312Z,74.30
2018-06-10T04:40:26.962Z,74.10
2018-06-10T04:40:59.686Z,73.90
2018-06-10T04:41:32.355Z,74.00
2018-06-10T04:42:05.184Z,74.00
2018-06-10T04:43:10.451Z,74.00
2018-06-10T04:43:43.119Z,74.20
2018-06-10T04:44:15.801Z,74.30
2018-06-10T04:44:48.487Z,73.90
2018-06-10T04:45:21.154Z,74.20
2018-06-10T04:45:53.835Z,74.30
2018-06-10T04:46:26.482Z,74.40
2018-06-10T04:46:59.186Z,74.20
2018-06-10T04:47:31.870Z,74.20
2018-06-10T04:48:37.667Z,74.00
2018-06-10T04:49:10.339Z,73.90
2018-06-10T04:49:43.029Z,73.60
2018-06-10T04:50:15.694Z,73.50
2018-06-10T04:50:48.370Z,73.50
2018-06-10T04:51:21.043Z,73.60
2018-06-10T04:51:53.705Z,73.80
2018-06-10T04:52:26.366Z,74.00
2018-06-10T04:52:59.055Z,74.10
2018-06-10T04:53:31.730Z,74.10
2018-06-10T04:54:04.438Z,74.20
2018-06-10T04:54:37.163Z,74.70
2018-06-10T04:55:09.842Z,74.70
2018-06-10T04:55:42.530Z,74.10
2018-06-10T04:56:15.247Z,74.10
2018-06-10T04:56:47.899Z,74.10
2018-06-10T04:57:20.570Z,74.20
2018-06-10T04:57:53.244Z,74.20
2018-06-10T04:58:25.930Z,74.40
2018-06-10T04:58:58.689Z,74.50
2018-06-10T04:59:31.351Z,74.40
2018-06-10T05:00:04.259Z,74.30
2018-06-10T05:00:36.980Z,74.10
2018-06-10T05:01:09.678Z,74.10
2018-06-10T05:01:42.362Z,74.10
2018-06-10T05:02:15.031Z,73.70
2018-06-10T05:02:47.690Z,73.60
2018-06-10T05:03:20.330Z,73.20
2018-06-10T05:04:25.609Z,72.40
2018-06-10T05:04:58.301Z,71.40
2018-06-10T05:05:30.967Z,70.90
2018-06-10T05:06:03.634Z,71.10
2018-06-10T05:06:36.307Z,71.10
2018-06-10T05:07:08.991Z,71.00
2018-06-10T05:07:41.686Z,70.80
2018-06-10T05:08:14.354Z,69.50
2018-06-10T05:08:47.017Z,68.70
2018-06-10T05:09:19.734Z,67.90
2018-06-10T05:09:52.390Z,67.70
2018-06-10T05:10:25.051Z,67.80
2018-06-10T05:10:57.709Z,67.70
2018-06-10T05:11:30.366Z,67.40
2018-06-10T05:12:03.022Z,67.60
2018-06-10T05:12:35.702Z,67.40
2018-06-10T05:13:08.410Z,67.20
2018-06-10T05:13:41.091Z,67.30
2018-06-10T05:14:13.754Z,67.00
2018-06-10T05:14:46.443Z,67.70
2018-06-10T05:15:19.126Z,67.80
2018-06-10T05:15:51.786Z,67.60
2018-06-10T05:16:24.458Z,68.20
2018-06-10T05:16:57.115Z,68.20
2018-06-10T05:17:29.786Z,68.20
2018-06-10T05:18:02.454Z,68.50
2018-06-10T05:18:35.134Z,68.10
2018-06-10T05:19:07.822Z,67.70
2018-06-10T05:19:40.557Z,67.20
2018-06-10T05:20:13.301Z,67.10
2018-06-10T05:20:45.942Z,66.90
2018-06-10T05:21:18.614Z,66.90
2018-06-10T05:21:51.270Z,66.90
2018-06-10T05:22:23.940Z,66.90
2018-06-10T05:22:56.630Z,67.50
2018-06-10T05:23:29.287Z,67.10
2018-06-10T05:24:01.954Z,66.90
2018-06-10T05:24:34.611Z,67.00
2018-06-10T05:25:07.327Z,67.00
2018-06-10T05:25:40.052Z,66.80
2018-06-10T05:26:12.742Z,66.50
2018-06-10T05:26:45.395Z,66.40
2018-06-10T05:27:18.070Z,66.20
2018-06-10T05:27:50.729Z,66.20
2018-06-10T05:28:55.991Z,66.00
2018-06-10T05:29:28.662Z,66.40
2018-06-10T05:30:01.419Z,66.30
2018-06-10T05:30:34.095Z,66.20
2018-06-10T05:31:06.800Z,65.90
2018-06-10T05:31:39.470Z,65.60
2018-06-10T05:32:12.123Z,66.00
2018-06-10T05:32:44.795Z,66.10
2018-06-10T05:33:17.459Z,66.10
2018-06-10T05:33:50.127Z,65.90
2018-06-10T05:34:22.799Z,65.70
2018-06-10T05:34:55.462Z,65.30
2018-06-10T05:35:28.127Z,65.30
2018-06-10T05:36:00.774Z,65.20
2018-06-10T05:36:33.475Z,65.40
2018-06-10T05:37:06.162Z,65.40
2018-06-10T05:37:38.839Z,65.40
2018-06-10T05:38:11.538Z,65.20
2018-06-10T05:38:44.194Z,64.80
2018-06-10T05:39:16.854Z,64.90
2018-06-10T05:39:49.554Z,65.10
2018-06-10T05:40:22.227Z,65.30
2018-06-10T05:40:54.899Z,65.40
2018-06-10T05:41:27.562Z,65.20
2018-06-10T05:42:00.266Z,65.10
2018-06-10T05:42:32.943Z,65.20
2018-06-10T05:43:05.865Z,65.40
2018-06-10T05:43:38.551Z,64.90
2018-06-10T05:44:11.459Z,64.60
2018-06-10T05:44:44.150Z,64.60
2018-06-10T05:45:16.828Z,64.50
2018-06-10T05:45:49.498Z,64.40
2018-06-10T05:46:22.190Z,64.30
2018-06-10T05:46:54.856Z,64.00
2018-06-10T05:47:27.582Z,63.70
2018-06-10T05:48:00.262Z,63.90
2018-06-10T05:48:32.931Z,63.50
2018-06-10T05:49:05.634Z,61.40
2018-06-10T05:49:38.359Z,58.50
2018-06-10T05:50:11.049Z,58.30
2018-06-10T05:50:43.726Z,58.40
2018-06-10T05:51:16.439Z,58.10
2018-06-10T05:51:49.083Z,58.90
2018-06-10T05:52:21.747Z,58.30
2018-06-10T05:52:54.462Z,58.30
2018-06-10T05:53:27.124Z,57.90
2018-06-10T05:53:59.790Z,57.90
2018-06-10T05:54:32.449Z,57.80
2018-06-10T05:55:05.172Z,58.20
2018-06-10T05:55:37.895Z,58.90
2018-06-10T05:56:10.562Z,58.40
2018-06-10T05:56:43.239Z,58.70
2018-06-10T05:57:15.938Z,58.70
2018-06-10T05:57:48.599Z,58.40
2018-06-10T05:58:21.298Z,58.40
2018-06-10T05:58:53.974Z,58.30
2018-06-10T05:59:26.658Z,58.00
2018-06-10T05:59:59.327Z,57.40
2018-06-10T06:00:32.006Z,57.60
2018-06-10T06:01:04.710Z,57.70
2018-06-10T06:01:38.091Z,57.50
2018-06-10T06:02:10.747Z,57.70
2018-06-10T06:02:43.450Z,57.90
2018-06-10T06:03:16.126Z,57.80
2018-06-10T06:03:48.833Z,57.80
2018-06-10T06:04:21.494Z,58.10
2018-06-10T06:04:54.170Z,57.70
2018-06-10T06:05:26.900Z,57.40
2018-06-10T06:05:59.551Z,57.50
2018-06-10T06:06:32.226Z,57.20
2018-06-10T06:07:04.896Z,57.00
2018-06-10T06:07:37.570Z,57.30
2018-06-10T06:08:10.255Z,56.80
2018-06-10T06:08:42.938Z,56.80
2018-06-10T06:09:15.655Z,57.30
2018-06-10T06:09:48.318Z,56.80
2018-06-10T06:10:20.970Z,57.10
2018-06-10T06:10:53.615Z,57.00
2018-06-10T06:11:26.274Z,57.10
2018-06-10T06:11:58.938Z,56.70
2018-06-10T06:12:31.635Z,56.60
2018-06-10T06:13:04.304Z,56.60
2018-06-10T06:13:36.983Z,57.00
2018-06-10T06:14:09.695Z,57.40
2018-06-10T06:14:42.395Z,57.10
2018-06-10T06:15:15.078Z,57.60
2018-06-10T06:15:47.839Z,58.30
2018-06-10T06:16:20.519Z,59.80
2018-06-10T06:16:53.194Z,58.20
2018-06-10T06:17:25.882Z,57.70
2018-06-10T06:17:58.583Z,57.90
2018-06-10T06:18:31.242Z,57.90
2018-06-10T06:19:03.906Z,58.50
2018-06-10T06:19:36.590Z,58.00
2018-06-10T06:20:09.282Z,57.70
2018-06-10T06:20:41.974Z,56.30
2018-06-10T06:21:14.627Z,56.00
2018-06-10T06:21:47.302Z,56.30
2018-06-10T06:22:19.998Z,56.00
2018-06-10T06:22:52.694Z,56.50
2018-06-10T06:23:25.372Z,57.10
2018-06-10T06:23:58.020Z,57.40
2018-06-10T06:24:30.686Z,57.60
2018-06-10T06:25:03.386Z,56.80
2018-06-10T06:25:36.110Z,56.50
2018-06-10T06:26:08.787Z,56.00
2018-06-10T06:26:41.443Z,55.70
2018-06-10T06:27:14.147Z,56.30
2018-06-10T06:27:46.810Z,55.90
2018-06-10T06:28:19.503Z,56.00
2018-06-10T06:28:52.214Z,55.60
2018-06-10T06:29:24.899Z,55.30
2018-06-10T06:29:57.553Z,56.10
2018-06-10T06:30:30.216Z,55.50
2018-06-10T06:31:02.927Z,55.30
2018-06-10T06:31:35.592Z,55.20
2018-06-10T06:32:08.258Z,55.90
2018-06-10T06:32:40.925Z,56.20
2018-06-10T06:33:13.642Z,56.40
2018-06-10T06:33:46.284Z,57.20
2018-06-10T06:34:18.967Z,56.70
2018-06-10T06:34:51.651Z,56.30
2018-06-10T06:35:24.343Z,56.10
2018-06-10T06:35:57.038Z,56.30
2018-06-10T06:36:29.740Z,57.00
2018-06-10T06:37:02.406Z,57.10
2018-06-10T06:37:35.082Z,56.20
2018-06-10T06:38:07.750Z,56.60
2018-06-10T06:38:40.439Z,55.60
2018-06-10T06:39:13.110Z,56.00
2018-06-10T06:39:45.770Z,56.60
2018-06-10T06:40:18.440Z,56.90
2018-06-10T06:40:51.159Z,57.40
2018-06-10T06:41:23.854Z,56.40
2018-06-10T06:41:56.606Z,55.70
2018-06-10T06:42:29.311Z,55.60
2018-06-10T06:43:02.371Z,56.00
2018-06-10T06:43:35.063Z,55.90
2018-06-10T06:44:07.730Z,55.20
2018-06-10T06:44:40.407Z,55.20
2018-06-10T06:45:13.082Z,55.20
2018-06-10T06:45:45.750Z,55.30
2018-06-10T06:46:18.438Z,55.30
2018-06-10T06:46:51.142Z,55.10
2018-06-10T06:47:23.882Z,55.50
2018-06-10T06:47:56.586Z,56.10
2018-06-10T06:48:29.330Z,56.10
2018-06-10T06:49:01.991Z,55.50
2018-06-10T06:49:34.673Z,55.20
2018-06-10T06:50:07.331Z,55.40
2018-06-10T06:50:39.998Z,55.00
2018-06-10T06:51:12.690Z,54.80
2018-06-10T06:51:45.363Z,54.90
2018-06-10T06:52:18.035Z,56.20
2018-06-10T06:52:51.059Z,55.90
2018-06-10T06:53:23.758Z,56.50
2018-06-10T06:53:56.434Z,56.30
2018-06-10T06:54:29.114Z,55.90
2018-06-10T06:55:01.770Z,55.50
2018-06-10T06:55:34.458Z,55.30
2018-06-10T06:56:07.526Z,55.30
2018-06-10T06:56:40.202Z,54.80
2018-06-10T06:57:12.870Z,54.80
2018-06-10T06:57:45.541Z,56.10
2018-06-10T06:58:18.261Z,56.00
2018-06-10T06:58:51.043Z,55.20
2018-06-10T06:59:23.741Z,56.00
2018-06-10T06:59:56.418Z,55.60
2018-06-10T07:00:29.094Z,54.90
2018-06-10T07:01:01.807Z,54.30
2018-06-10T07:01:34.494Z,55.40
2018-06-10T07:02:07.150Z,55.30
2018-06-10T07:03:12.397Z,55.20
2018-06-10T07:03:45.114Z,54.70
2018-06-10T07:04:17.853Z,55.40
2018-06-10T07:04:50.504Z,54.90
2018-06-10T07:05:23.180Z,55.30
2018-06-10T07:05:55.837Z,56.10
2018-06-10T07:06:28.673Z,56.90
2018-06-10T07:07:34.270Z,56.90
2018-06-10T07:08:06.970Z,56.80